createdAt,value
2022-10-19T00:01:11.368Z,9.07
2022-10-19T00:08:58.874Z,8.91
2022-10-19T00:12:04.674Z,8.87
2022-10-19T00:15:41.412Z,8.80
2022-10-19T00:19:41.912Z,8.77
2022-10-19T00:22:45.092Z,8.76
2022-10-19T00:25:56.878Z,8.81
2022-10-19T00:29:27.437Z,8.73
2022-10-19T00:36:50.539Z,8.66
2022-10-19T00:40:43.548Z,8.60
2022-10-19T00:44:30.627Z,8.54
2022-10-19T00:47:56.736Z,8.48
2022-10-19T00:51:29.082Z,8.49
2022-10-19T00:55:07.231Z,8.36
2022-10-19T00:58:11.798Z,8.38
2022-10-19T01:01:37.888Z,8.34
2022-10-19T01:05:03.873Z,8.35
2022-10-19T01:08:28.543Z,8.34
2022-10-19T01:16:36.597Z,8.28
2022-10-19T01:20:32.839Z,8.29
2022-10-19T01:28:33.115Z,8.32
2022-10-19T01:32:31.141Z,8.29
2022-10-19T01:36:23.245Z,8.37
2022-10-19T01:40:39.745Z,8.38
2022-10-19T01:44:04.370Z,8.40
2022-10-19T01:48:16.667Z,8.42
2022-10-19T01:51:45.502Z,8.45
2022-10-19T01:54:52.645Z,8.43
2022-10-19T01:58:22.848Z,8.40
2022-10-19T02:01:29.518Z,8.41
2022-10-19T02:04:57.691Z,8.50
2022-10-19T02:08:30.556Z,8.43
2022-10-19T02:12:04.058Z,8.40
2022-10-19T02:15:31.736Z,8.43
2022-10-19T02:23:25.634Z,8.57
2022-10-19T02:26:33.155Z,8.65
2022-10-19T02:30:03.492Z,8.77
2022-10-19T02:33:47.352Z,8.81
2022-10-19T02:36:54.988Z,8.83
2022-10-19T02:40:01.625Z,8.91
2022-10-19T02:43:51.705Z,9.03
2022-10-19T02:47:26.526Z,9.06
2022-10-19T02:51:02.536Z,9.16
2022-10-19T02:54:33.353Z,9.09
2022-10-19T02:58:03.918Z,9.04
2022-10-19T03:01:50.818Z,9.00
2022-10-19T03:05:34.831Z,8.98
2022-10-19T03:09:02.599Z,9.03
2022-10-19T03:12:13.874Z,9.15
2022-10-19T03:16:01.358Z,9.19
2022-10-19T03:19:38.784Z,9.30
2022-10-19T03:23:12.247Z,9.33
2022-10-19T03:26:38.529Z,9.35
2022-10-19T03:30:41.993Z,9.37
2022-10-19T03:34:45.620Z,9.47
2022-10-19T03:38:07.373Z,9.57
2022-10-19T03:41:34.943Z,9.60
2022-10-19T03:44:45.315Z,9.63
2022-10-19T03:48:08.463Z,9.70
2022-10-19T03:52:10.189Z,9.59
2022-10-19T03:55:33.015Z,9.57
2022-10-19T03:59:02.060Z,9.53
2022-10-19T04:03:07.632Z,9.49
2022-10-19T04:06:44.002Z,9.41
2022-10-19T04:10:09.465Z,9.31
2022-10-19T04:13:38.895Z,9.25
2022-10-19T04:17:02.993Z,9.08
2022-10-19T04:20:29.942Z,9.03
2022-10-19T04:23:57.608Z,8.99
2022-10-19T04:27:20.742Z,8.93
2022-10-19T04:30:24.767Z,8.88
2022-10-19T04:34:08.801Z,8.86
2022-10-19T04:37:33.455Z,8.80
2022-10-19T04:45:27.101Z,8.65
2022-10-19T04:48:50.628Z,8.57
2022-10-19T04:51:57.220Z,8.50
2022-10-19T05:00:23.250Z,8.32
2022-10-19T05:04:02.150Z,8.23
2022-10-19T05:07:27.642Z,8.21
2022-10-19T05:11:00.107Z,8.16
2022-10-19T05:14:11.326Z,8.14
2022-10-19T05:17:37.473Z,8.09
2022-10-19T05:21:13.226Z,8.06
2022-10-19T05:24:36.125Z,8.08
2022-10-19T05:31:52.352Z,8.05
2022-10-19T05:35:21.548Z,8.02
2022-10-19T05:38:25.964Z,8.01
2022-10-19T05:41:32.713Z,8.08
2022-10-19T05:45:08.338Z,8.18
2022-10-19T05:48:11.924Z,8.33
2022-10-19T05:51:46.710Z,8.49
2022-10-19T05:55:15.695Z,8.62
2022-10-19T05:58:46.293Z,8.79
2022-10-19T06:02:14.269Z,8.91
2022-10-19T06:05:17.964Z,9.11
2022-10-19T06:08:25.218Z,9.31
2022-10-19T06:11:52.119Z,9.50
2022-10-19T06:15:23.245Z,10.03
2022-10-19T06:18:47.340Z,10.63
2022-10-19T06:21:55.035Z,11.14
2022-10-19T06:29:34.758Z,12.01
2022-10-19T06:32:41.189Z,12.42
2022-10-19T06:35:46.617Z,12.79
2022-10-19T06:38:53.984Z,12.97
2022-10-19T06:42:04.384Z,13.15
2022-10-19T06:45:09.453Z,13.31
2022-10-19T06:48:15.685Z,13.63
2022-10-19T06:51:28.401Z,13.90
2022-10-19T06:54:31.109Z,14.11
2022-10-19T06:57:34.595Z,14.29
2022-10-19T07:00:37.563Z,14.45
2022-10-19T07:04:06.519Z,14.68
2022-10-19T07:07:29.505Z,14.83
2022-10-19T07:10:34.324Z,14.78
2022-10-19T07:13:56.937Z,14.80
2022-10-19T07:17:29.517Z,14.83
2022-10-19T07:20:58.852Z,14.82
2022-10-19T07:24:22.817Z,14.69
2022-10-19T07:27:46.607Z,14.59
2022-10-19T07:31:19.149Z,14.60
2022-10-19T07:34:24.210Z,14.61
2022-10-19T07:38:05.985Z,14.65
2022-10-19T07:41:14.944Z,14.65
2022-10-19T07:44:38.075Z,14.61
2022-10-19T07:48:04.585Z,14.55
2022-10-19T07:51:15.529Z,14.58
2022-10-19T07:54:58.207Z,14.64
2022-10-19T07:58:02.760Z,14.75
2022-10-19T08:01:11.312Z,14.73
2022-10-19T08:04:55.948Z,14.81
2022-10-19T08:08:01.327Z,14.88
2022-10-19T08:11:12.653Z,14.90
2022-10-19T08:14:39.637Z,15.00
2022-10-19T08:18:23.988Z,15.15
2022-10-19T08:22:07.203Z,15.18
2022-10-19T08:25:47.466Z,15.25
2022-10-19T08:29:30.701Z,15.36
2022-10-19T08:33:08.528Z,15.44
2022-10-19T08:36:48.130Z,15.50
2022-10-19T08:40:31.205Z,15.70
2022-10-19T08:44:00.668Z,15.73
2022-10-19T08:47:27.195Z,15.93
2022-10-19T08:51:01.367Z,15.94
2022-10-19T08:54:50.541Z,16.21
2022-10-19T08:58:57.137Z,16.45
2022-10-19T09:03:09.391Z,16.70
2022-10-19T09:07:00.813Z,16.93
2022-10-19T09:10:41.208Z,17.31
2022-10-19T09:14:19.768Z,17.91
2022-10-19T09:25:08.135Z,19.57
2022-10-19T09:28:39.930Z,20.11
2022-10-19T09:31:47.309Z,20.51
2022-10-19T09:34:58.140Z,20.37
2022-10-19T09:38:07.197Z,20.07
2022-10-19T09:41:22.680Z,19.67
2022-10-19T09:44:27.317Z,19.61
2022-10-19T09:47:40.370Z,19.47
2022-10-19T09:50:44.963Z,19.44
2022-10-19T09:53:55.597Z,19.35
2022-10-19T09:56:58.611Z,19.20
2022-10-19T10:00:04.510Z,19.37
2022-10-19T10:03:07.799Z,19.16
2022-10-19T10:06:38.417Z,19.32
2022-10-19T10:10:29.745Z,19.01
2022-10-19T10:14:33.531Z,18.97
2022-10-19T10:17:58.591Z,18.98
2022-10-19T10:21:11.142Z,19.21
2022-10-19T10:24:14.636Z,19.44
2022-10-19T10:27:36.918Z,19.32
2022-10-19T10:30:41.315Z,19.73
2022-10-19T10:37:06.002Z,19.84
2022-10-19T10:40:38.227Z,19.55
2022-10-19T10:44:20.053Z,19.72
2022-10-19T10:48:57.571Z,19.57
2022-10-19T10:52:57.147Z,19.91
2022-10-19T10:56:38.661Z,20.09
2022-10-19T11:00:38.979Z,20.35
2022-10-19T11:04:25.735Z,20.44
2022-10-19T11:22:54.903Z,22.66
2022-10-19T11:31:18.281Z,22.77
2022-10-19T11:35:35.255Z,22.22
2022-10-19T11:45:30.531Z,21.47
2022-10-19T11:48:12.858Z,20.76
2022-10-19T11:56:58.487Z,20.53
2022-10-19T12:15:18.789Z,20.22
2022-10-19T12:51:02.755Z,19.37
2022-10-19T12:54:49.047Z,19.67
2022-10-19T14:14:55.514Z,18.28
2022-10-19T14:34:08.519Z,17.08
2022-10-19T14:38:15.808Z,16.94
2022-10-19T16:10:18.812Z,14.41
2022-10-19T16:34:24.436Z,13.93
2022-10-19T16:38:29.248Z,13.77
2022-10-19T16:41:53.241Z,13.59
2022-10-19T16:54:07.439Z,13.34
2022-10-19T16:57:47.289Z,13.28
2022-10-19T17:01:48.261Z,13.35
2022-10-19T17:05:32.812Z,13.39
2022-10-19T17:09:37.080Z,13.43
2022-10-19T17:12:43.838Z,13.35
2022-10-19T17:16:53.905Z,13.26
2022-10-19T17:20:15.138Z,13.19
2022-10-19T17:23:58.657Z,13.18
2022-10-19T17:27:34.843Z,13.07
2022-10-19T17:31:14.324Z,13.07
2022-10-19T17:35:00.246Z,13.01
2022-10-19T17:38:37.009Z,13.00
2022-10-19T17:42:33.771Z,12.97
2022-10-19T17:45:59.358Z,12.94
2022-10-19T17:49:50.805Z,12.91
2022-10-19T17:53:33.037Z,12.84
2022-10-19T17:57:05.243Z,12.79
2022-10-19T18:00:27.335Z,12.75
2022-10-19T18:04:00.583Z,12.72
2022-10-19T18:07:28.727Z,12.70
2022-10-19T18:11:11.013Z,12.69
2022-10-19T18:14:38.614Z,12.60
2022-10-19T18:18:04.734Z,12.57
2022-10-19T18:21:55.861Z,12.53
2022-10-19T18:25:49.275Z,12.45
2022-10-19T18:29:10.263Z,12.33
2022-10-19T18:32:59.800Z,12.25
2022-10-19T18:36:55.743Z,12.24
2022-10-19T18:40:44.132Z,12.07
2022-10-19T18:48:18.882Z,12.01
2022-10-19T18:52:09.796Z,11.85
2022-10-19T18:55:57.237Z,11.79
2022-10-19T18:59:33.050Z,11.74
2022-10-19T19:02:59.708Z,11.75
2022-10-19T19:06:55.035Z,11.69
2022-10-19T19:10:25.374Z,11.54
2022-10-19T19:14:13.154Z,11.41
2022-10-19T19:17:31.617Z,11.24
2022-10-19T19:21:19.431Z,11.03
2022-10-19T19:24:54.011Z,11.01
2022-10-19T19:28:03.750Z,10.94
2022-10-19T19:31:39.714Z,10.87
2022-10-19T19:38:55.632Z,10.66
2022-10-19T19:42:29.864Z,10.55
2022-10-19T19:46:14.333Z,10.27
2022-10-19T19:49:47.172Z,10.06
2022-10-19T19:53:19.368Z,9.81
2022-10-19T19:56:56.265Z,9.64
2022-10-19T20:00:46.267Z,9.69
2022-10-19T20:04:14.457Z,9.68
2022-10-19T20:07:50.191Z,9.75
2022-10-19T20:11:27.620Z,9.85
2022-10-19T20:14:57.734Z,9.79
2022-10-19T20:19:02.520Z,9.87
2022-10-19T20:22:52.417Z,9.76
2022-10-19T20:26:33.028Z,9.77
2022-10-19T20:29:59.584Z,9.60
2022-10-19T20:33:52.535Z,9.55
2022-10-19T20:37:10.308Z,9.35
2022-10-19T20:40:54.685Z,9.35
2022-10-19T20:44:53.056Z,9.35
2022-10-19T20:48:37.992Z,9.24
2022-10-19T20:52:01.456Z,9.23
2022-10-19T20:55:51.370Z,9.15
2022-10-19T20:59:29.107Z,9.11
2022-10-19T21:03:22.006Z,9.10
2022-10-19T21:07:08.210Z,9.01
2022-10-19T21:10:16.234Z,8.90
2022-10-19T21:14:02.505Z,8.84
2022-10-19T21:21:25.003Z,8.70
2022-10-19T21:24:50.343Z,8.70
2022-10-19T21:28:32.736Z,8.62
2022-10-19T21:32:41.669Z,8.50
2022-10-19T21:36:28.443Z,8.49
2022-10-19T21:40:09.605Z,8.31
2022-10-19T21:43:47.605Z,8.19
2022-10-19T21:47:23.165Z,8.09
2022-10-19T21:51:55.760Z,8.00
2022-10-19T21:55:56.621Z,7.88
2022-10-19T21:59:35.928Z,7.90
2022-10-19T22:07:49.029Z,7.87
2022-10-19T22:11:51.448Z,7.86
2022-10-19T22:15:39.554Z,7.89
2022-10-19T22:19:10.431Z,7.80
2022-10-19T22:22:42.395Z,7.59
2022-10-19T22:26:33.677Z,7.53
2022-10-19T22:29:55.613Z,7.48
2022-10-19T22:33:39.768Z,7.35
2022-10-19T22:37:05.277Z,7.26
2022-10-19T22:41:22.381Z,7.14
2022-10-19T22:45:11.223Z,7.03
2022-10-19T22:48:50.719Z,6.90
2022-10-19T22:52:38.446Z,6.83
2022-10-19T22:56:21.123Z,6.79
2022-10-19T23:00:00.031Z,6.69
2022-10-19T23:03:49.485Z,6.60
2022-10-19T23:07:35.888Z,6.54
2022-10-19T23:11:07.276Z,6.41
2022-10-19T23:14:45.806Z,6.46
2022-10-19T23:18:08.860Z,6.38
2022-10-19T23:21:42.962Z,6.27
2022-10-19T23:25:00.940Z,6.25
2022-10-19T23:28:25.798Z,6.27
2022-10-19T23:32:07.284Z,6.15
2022-10-19T23:35:44.339Z,6.12
2022-10-19T23:38:56.064Z,6.02
2022-10-19T23:46:34.562Z,5.86
2022-10-19T23:50:07.071Z,5.80
2022-10-19T23:53:23.488Z,5.75
2022-10-19T23:56:56.982Z,5.81
